Time;durP1;ratioP1;P1;durP2;ratioP2;P2;SDS_P1;SDS_P2;PMS_P1;PMS_P2;Temp;Humidity;BMP_temperature;BMP_pressure;BME280_temperature;BME280_humidity;BME280_pressure;Samples;Min_cycle;Max_cycle;Signal;HPM_P1;HPM_P2
2021/05/06 00:01:12;;;;;;;9.90;2.10;;;;;;;;;;5053663;28;20190;-60
2021/05/06 00:34:01;;;;;;;5.25;2.75;;;;;;;;;;5024280;28;20299;-60
2021/05/06 00:36:29;;;;;;;10.98;3.17;;;;;;;;;;5054801;28;20243;-61
2021/05/06 00:38:59;;;;;;;8.85;2.75;;;;;;;;;;5054966;28;20209;-60
2021/05/06 00:41:40;;;;;;;6.03;2.25;;;;;;;;;;5054237;28;20198;-60
2021/05/06 00:55:11;;;;;;;6.55;2.65;;;;;;;;;;5054155;28;20189;-60
2021/05/06 00:57:46;;;;;;;5.10;2.40;;;;;;;;;;5056531;28;20194;-61
2021/05/06 01:00:47;;;;;;;10.27;2.55;;;;;;;;;;5063407;28;20224;-61
2021/05/06 01:03:23;;;;;;;6.28;2.35;;;;;;;;;;5057809;28;20304;-60
2021/05/06 01:05:53;;;;;;;5.35;1.98;;;;;;;;;;5055586;28;20243;-61
2021/05/06 01:08:23;;;;;;;6.40;2.80;;;;;;;;;;5054289;28;20203;-61
2021/05/06 01:11:10;;;;;;;8.68;2.60;;;;;;;;;;5053819;28;20201;-60
2021/05/06 01:13:39;;;;;;;4.32;1.75;;;;;;;;;;5055707;28;20227;-61
2021/05/06 01:16:06;;;;;;;6.93;2.40;;;;;;;;;;5057466;28;20209;-61
2021/05/06 01:18:32;;;;;;;7.90;2.47;;;;;;;;;;5057735;28;20209;-61
2021/05/06 01:21:02;;;;;;;4.25;2.40;;;;;;;;;;5058337;28;20202;-60
2021/05/06 01:23:30;;;;;;;5.10;2.10;;;;;;;;;;5059692;28;20312;-60
2021/05/06 01:26:00;;;;;;;4.45;2.45;;;;;;;;;;5064894;28;20213;-61
2021/05/06 01:28:29;;;;;;;8.48;2.75;;;;;;;;;;5064786;28;20240;-60
2021/05/06 01:31:01;;;;;;;4.03;2.45;;;;;;;;;;5065923;28;20201;-60
2021/05/06 01:33:33;;;;;;;8.00;2.55;;;;;;;;;;5064899;28;20585;-61
2021/05/06 01:36:03;;;;;;;4.60;3.17;;;;;;;;;;5065809;28;20186;-61
2021/05/06 01:38:48;;;;;;;5.47;2.15;;;;;;;;;;5064921;28;20198;-60
2021/05/06 01:44:11;;;;;;;8.07;2.63;;;;;;;;;;5023737;28;20317;-60
2021/05/06 01:47:08;;;;;;;5.90;2.55;;;;;;;;;;5060716;28;20198;-60
2021/05/06 01:49:57;;;;;;;6.53;2.70;;;;;;;;;;5059892;28;20278;-60
2021/05/06 01:58:08;;;;;;;4.18;2.40;;;;;;;;;;5060254;28;20653;-60
2021/05/06 02:00:37;;;;;;;6.50;2.65;;;;;;;;;;5063239;28;20189;-60
2021/05/06 02:03:04;;;;;;;4.07;2.38;;;;;;;;;;5068153;28;20244;-60
2021/05/06 02:05:31;;;;;;;5.53;2.00;;;;;;;;;;5067123;28;20204;-60
2021/05/06 02:07:59;;;;;;;8.20;2.45;;;;;;;;;;5066124;28;20205;-60
2021/05/06 02:10:27;;;;;;;4.43;2.20;;;;;;;;;;5063883;28;20202;-60
2021/05/06 02:12:54;;;;;;;7.00;2.60;;;;;;;;;;5061754;28;20225;-59
2021/05/06 02:15:23;;;;;;;8.02;3.42;;;;;;;;;;5061977;28;20205;-60
2021/05/06 02:17:50;;;;;;;6.95;2.33;;;;;;;;;;5062802;28;20221;-60
2021/05/06 02:20:17;;;;;;;3.30;2.35;;;;;;;;;;5061456;28;20684;-60
2021/05/06 02:22:45;;;;;;;6.63;3.00;;;;;;;;;;5062128;28;20253;-61
2021/05/06 02:25:14;;;;;;;6.65;2.35;;;;;;;;;;5061984;28;20208;-60
2021/05/06 02:27:41;;;;;;;5.95;2.55;;;;;;;;;;5063229;28;20208;-59
2021/05/06 02:30:08;;;;;;;5.45;2.45;;;;;;;;;;5071010;28;20208;-61
2021/05/06 02:32:35;;;;;;;7.97;2.58;;;;;;;;;;5070625;28;20300;-60
2021/05/06 02:35:02;;;;;;;6.32;2.90;;;;;;;;;;5061348;28;20197;-60
2021/05/06 02:37:28;;;;;;;3.97;2.25;;;;;;;;;;5066100;28;20603;-61
2021/05/06 02:39:55;;;;;;;6.50;2.58;;;;;;;;;;5067274;28;20206;-60
2021/05/06 02:42:23;;;;;;;8.63;3.05;;;;;;;;;;5065697;28;20669;-60
2021/05/06 02:44:50;;;;;;;5.60;2.95;;;;;;;;;;5061158;28;20688;-60
2021/05/06 02:47:16;;;;;;;4.57;2.20;;;;;;;;;;5058265;28;20209;-60
2021/05/06 02:49:45;;;;;;;5.63;2.30;;;;;;;;;;5057879;28;20293;-61
2021/05/06 02:52:16;;;;;;;3.45;2.30;;;;;;;;;;5057204;28;20225;-60
2021/05/06 02:54:46;;;;;;;3.63;2.35;;;;;;;;;;5101172;22;20220;-55
2021/05/06 02:57:20;;;;;;;4.50;1.95;;;;;;;;;;5078639;28;20574;-56
2021/05/06 03:02:48;;;;;;;8.60;2.50;;;;;;;;;;5078580;28;20192;-56
2021/05/06 03:05:15;;;;;;;7.35;2.75;;;;;;;;;;5058113;28;20182;-56
2021/05/06 03:07:45;;;;;;;4.60;2.38;;;;;;;;;;5057669;28;20677;-56
2021/05/06 03:10:20;;;;;;;7.30;2.70;;;;;;;;;;5058189;28;20186;-56
2021/05/06 03:13:09;;;;;;;4.93;2.67;;;;;;;;;;5058567;28;20617;-56
2021/05/06 03:23:52;;;;;;;8.70;2.92;;;;;;;;;;5057686;28;20219;-56
2021/05/06 03:26:18;;;;;;;5.20;2.58;;;;;;;;;;5057787;28;20206;-56
2021/05/06 03:28:51;;;;;;;6.78;2.67;;;;;;;;;;5058535;28;20206;-55
2021/05/06 03:31:31;;;;;;;5.03;2.28;;;;;;;;;;5057899;28;20190;-56
2021/05/06 03:42:11;;;;;;;5.53;2.60;;;;;;;;;;5057484;28;20208;-55
2021/05/06 03:44:48;;;;;;;7.22;2.78;;;;;;;;;;5058024;28;20316;-55
2021/05/06 04:19:04;;;;;;;5.43;3.40;;;;;;;;;;5111025;28;20208;-56
2021/05/06 04:21:44;;;;;;;8.57;4.05;;;;;;;;;;5112915;28;20184;-55
2021/05/06 04:27:07;;;;;;;6.57;4.13;;;;;;;;;;5112862;28;20578;-56
2021/05/06 04:37:55;;;;;;;6.28;4.05;;;;;;;;;;5109013;28;20192;-56
2021/05/06 04:40:34;;;;;;;8.23;4.88;;;;;;;;;;5111990;28;20616;-56
2021/05/06 04:54:04;;;;;;;9.10;8.10;;;;;;;;;;5112837;28;20212;-56
2021/05/06 04:56:47;;;;;;;11.40;8.43;;;;;;;;;;5112856;28;20628;-56
2021/05/06 05:04:49;;;;;;;12.07;9.52;;;;;;;;;;5112567;28;20241;-56
2021/05/06 05:07:19;;;;;;;17.02;10.75;;;;;;;;;;5113078;28;20369;-55
2021/05/06 05:10:06;;;;;;;13.98;10.23;;;;;;;;;;5112302;28;20204;-56
2021/05/06 05:18:31;;;;;;;15.20;11.27;;;;;;;;;;5101482;28;20219;-56
2021/05/06 05:23:41;;;;;;;13.80;11.70;;;;;;;;;;5099115;28;20307;-56
2021/05/06 05:26:10;;;;;;;18.52;11.80;;;;;;;;;;5099755;28;20303;-56
2021/05/06 05:28:38;;;;;;;17.80;12.43;;;;;;;;;;5100361;28;20207;-57
2021/05/06 05:31:05;;;;;;;16.30;11.07;;;;;;;;;;5100295;28;20222;-57
2021/05/06 05:33:35;;;;;;;15.57;13.23;;;;;;;;;;5100441;28;20252;-57
2021/05/06 05:36:08;;;;;;;16.27;12.77;;;;;;;;;;5100992;28;20273;-57
2021/05/06 05:38:44;;;;;;;15.38;12.30;;;;;;;;;;5101293;28;20188;-57
2021/05/06 05:44:14;;;;;;;15.10;12.45;;;;;;;;;;5107423;28;20230;-56
2021/05/06 05:54:51;;;;;;;15.18;12.30;;;;;;;;;;5105382;28;20262;-56
2021/05/06 05:57:18;;;;;;;18.42;14.68;;;;;;;;;;5102485;28;20201;-55
2021/05/06 05:59:45;;;;;;;17.27;14.20;;;;;;;;;;5098828;28;20572;-55
2021/05/06 06:02:12;;;;;;;16.73;14.20;;;;;;;;;;5098093;28;20671;-56
2021/05/06 06:04:39;;;;;;;17.05;14.20;;;;;;;;;;5098984;28;20217;-55
2021/05/06 06:07:06;;;;;;;22.42;15.55;;;;;;;;;;5101133;28;20228;-55
2021/05/06 06:09:33;;;;;;;15.93;14.05;;;;;;;;;;5099161;28;20626;-56
2021/05/06 06:12:00;;;;;;;18.05;14.07;;;;;;;;;;5099413;28;20607;-56
2021/05/06 06:14:33;;;;;;;21.98;16.15;;;;;;;;;;5099174;28;20232;-56
2021/05/06 06:17:01;;;;;;;22.00;16.30;;;;;;;;;;5101764;28;20181;-56
2021/05/06 06:19:34;;;;;;;18.80;14.27;;;;;;;;;;5099653;28;20200;-56
2021/05/06 06:22:04;;;;;;;17.80;14.57;;;;;;;;;;5100071;28;20625;-56
2021/05/06 06:24:31;;;;;;;19.60;14.63;;;;;;;;;;5099723;28;20223;-57
2021/05/06 06:26:58;;;;;;;16.15;13.98;;;;;;;;;;5096974;28;20589;-56
2021/05/06 06:29:30;;;;;;;17.27;14.60;;;;;;;;;;5097896;28;20200;-56
2021/05/06 06:31:57;;;;;;;14.45;12.55;;;;;;;;;;5099598;28;20197;-57
2021/05/06 06:34:25;;;;;;;14.95;13.40;;;;;;;;;;5097578;28;20228;-56
2021/05/06 06:36:52;;;;;;;14.57;12.98;;;;;;;;;;5098464;28;20201;-55
2021/05/06 06:39:19;;;;;;;13.80;12.30;;;;;;;;;;5097797;28;20204;-56
2021/05/06 06:41:46;;;;;;;16.15;12.98;;;;;;;;;;5096969;28;20207;-56
2021/05/06 06:44:14;;;;;;;14.40;12.88;;;;;;;;;;5097129;28;20282;-56
2021/05/06 06:46:41;;;;;;;14.35;12.13;;;;;;;;;;5095684;28;20220;-56
2021/05/06 06:49:10;;;;;;;13.57;12.10;;;;;;;;;;5095869;28;20663;-56
2021/05/06 06:51:38;;;;;;;12.43;10.48;;;;;;;;;;5095701;28;20247;-56
2021/05/06 06:54:05;;;;;;;15.88;13.35;;;;;;;;;;5096009;28;20270;-55
2021/05/06 06:56:32;;;;;;;13.02;11.57;;;;;;;;;;5095272;28;20667;-57
2021/05/06 06:58:59;;;;;;;12.90;11.55;;;;;;;;;;5096175;28;20569;-57
2021/05/06 07:01:26;;;;;;;14.70;13.05;;;;;;;;;;5096272;28;20200;-57
2021/05/06 07:03:52;;;;;;;12.52;11.20;;;;;;;;;;5094028;28;20311;-57
2021/05/06 07:06:19;;;;;;;13.70;12.30;;;;;;;;;;5093226;28;20470;-56
2021/05/06 07:08:48;;;;;;;17.45;13.25;;;;;;;;;;5094540;28;20834;-57
2021/05/06 07:11:15;;;;;;;14.00;12.60;;;;;;;;;;5095115;28;20220;-56
2021/05/06 07:13:42;;;;;;;15.40;13.77;;;;;;;;;;5094521;28;20247;-57
2021/05/06 07:16:09;;;;;;;12.50;11.25;;;;;;;;;;5095145;28;20230;-55
2021/05/06 07:18:36;;;;;;;13.25;11.85;;;;;;;;;;5094991;28;20199;-57
2021/05/06 07:21:04;;;;;;;13.18;11.98;;;;;;;;;;5096110;28;20193;-56
2021/05/06 07:23:31;;;;;;;11.82;10.63;;;;;;;;;;5096455;28;20232;-56
2021/05/06 07:25:59;;;;;;;11.70;10.50;;;;;;;;;;5095282;28;20565;-57
2021/05/06 07:28:31;;;;;;;12.68;11.48;;;;;;;;;;5097873;28;20207;-56
2021/05/06 07:31:00;;;;;;;12.77;10.48;;;;;;;;;;5096502;28;20185;-57
2021/05/06 07:33:28;;;;;;;12.05;10.85;;;;;;;;;;5094481;28;20231;-56
2021/05/06 07:35:55;;;;;;;11.25;10.15;;;;;;;;;;5094459;28;20656;-56
2021/05/06 07:38:22;;;;;;;10.95;9.95;;;;;;;;;;5095397;28;20215;-57
2021/05/06 07:40:49;;;;;;;10.85;9.85;;;;;;;;;;5094065;28;20206;-56
2021/05/06 07:43:17;;;;;;;9.40;8.50;;;;;;;;;;5094170;28;20220;-56
2021/05/06 07:45:44;;;;;;;10.85;9.85;;;;;;;;;;5094547;28;20311;-56
2021/05/06 07:48:11;;;;;;;9.43;8.52;;;;;;;;;;5093931;28;20232;-56
2021/05/06 07:50:38;;;;;;;9.13;8.23;;;;;;;;;;5094060;28;20203;-56
2021/05/06 07:53:07;;;;;;;13.27;8.48;;;;;;;;;;5093630;28;20220;-57
2021/05/06 07:55:34;;;;;;;10.27;7.82;;;;;;;;;;5094095;28;20250;-57
2021/05/06 07:58:01;;;;;;;7.75;7.15;;;;;;;;;;5094398;28;20198;-56
2021/05/06 08:00:29;;;;;;;8.75;7.95;;;;;;;;;;5094387;28;20571;-58
2021/05/06 08:02:56;;;;;;;8.13;7.38;;;;;;;;;;5093771;28;20200;-56
2021/05/06 08:05:23;;;;;;;8.60;7.38;;;;;;;;;;5093597;28;20340;-56
2021/05/06 08:07:50;;;;;;;10.57;6.50;;;;;;;;;;5093835;28;20216;-57
2021/05/06 08:10:18;;;;;;;8.10;6.25;;;;;;;;;;5094094;28;20214;-56
2021/05/06 08:12:45;;;;;;;7.38;6.78;;;;;;;;;;5093572;28;20200;-56
2021/05/06 08:15:12;;;;;;;6.20;5.70;;;;;;;;;;5093858;28;20313;-57
2021/05/06 08:17:41;;;;;;;5.80;5.30;;;;;;;;;;5092822;28;20680;-55
2021/05/06 08:20:09;;;;;;;5.80;5.38;;;;;;;;;;5093112;28;20200;-56
2021/05/06 08:22:36;;;;;;;5.65;5.15;;;;;;;;;;5093528;28;20208;-56
2021/05/06 08:25:03;;;;;;;6.60;6.00;;;;;;;;;;5092878;28;20231;-56
2021/05/06 08:27:31;;;;;;;6.57;6.05;;;;;;;;;;5092741;28;20217;-55
2021/05/06 08:29:58;;;;;;;6.80;6.20;;;;;;;;;;5092688;28;20733;-56
2021/05/06 08:32:24;;;;;;;6.05;5.53;;;;;;;;;;5092800;28;20201;-56
2021/05/06 08:34:52;;;;;;;6.65;5.45;;;;;;;;;;5092632;28;20220;-56
2021/05/06 08:37:19;;;;;;;7.70;6.60;;;;;;;;;;5093373;28;20204;-55
2021/05/06 08:39:46;;;;;;;6.60;5.97;;;;;;;;;;5093849;28;20211;-56
2021/05/06 08:42:14;;;;;;;6.60;6.00;;;;;;;;;;5092862;28;20668;-56
2021/05/06 08:44:41;;;;;;;6.82;6.22;;;;;;;;;;5092942;28;20653;-56
2021/05/06 08:47:12;;;;;;;7.85;5.65;;;;;;;;;;5092485;28;20310;-56
2021/05/06 08:49:40;;;;;;;6.45;5.85;;;;;;;;;;5092756;28;20180;-56
2021/05/06 08:52:08;;;;;;;7.18;6.47;;;;;;;;;;5092840;28;20208;-57
2021/05/06 08:54:35;;;;;;;6.75;6.15;;;;;;;;;;5096453;28;20228;-56
2021/05/06 08:57:02;;;;;;;6.70;5.03;;;;;;;;;;5096527;28;20203;-55
2021/05/06 08:59:29;;;;;;;8.65;5.35;;;;;;;;;;5096177;28;20204;-55
2021/05/06 09:01:56;;;;;;;5.40;5.00;;;;;;;;;;5095998;28;20592;-55
2021/05/06 09:04:25;;;;;;;6.10;5.55;;;;;;;;;;5095769;28;20221;-56
2021/05/06 09:06:52;;;;;;;7.45;5.47;;;;;;;;;;5096127;28;20274;-56
2021/05/06 09:09:20;;;;;;;6.88;5.07;;;;;;;;;;5097063;28;20211;-56
2021/05/06 09:11:51;;;;;;;5.70;5.20;;;;;;;;;;5096369;28;20281;-57
2021/05/06 09:14:18;;;;;;;7.57;5.35;;;;;;;;;;5096278;28;20590;-57
2021/05/06 09:16:45;;;;;;;6.68;5.30;;;;;;;;;;5096002;28;20200;-56
2021/05/06 09:19:13;;;;;;;12.32;4.45;;;;;;;;;;5096255;28;20664;-57
2021/05/06 09:21:42;;;;;;;5.47;4.63;;;;;;;;;;5088288;22;20237;-53
2021/05/06 09:24:10;;;;;;;6.15;4.97;;;;;;;;;;5035431;28;20733;-53
2021/05/06 09:26:39;;;;;;;6.95;4.35;;;;;;;;;;5035236;28;20728;-52
2021/05/06 09:29:06;;;;;;;5.15;4.22;;;;;;;;;;5037644;28;20206;-53
2021/05/06 09:31:37;;;;;;;5.97;4.60;;;;;;;;;;5039114;28;20230;-58
2021/05/06 09:34:07;;;;;;;9.38;5.07;;;;;;;;;;5037320;28;20576;-54
2021/05/06 09:36:34;;;;;;;28.08;7.05;;;;;;;;;;5039852;28;20245;-55
2021/05/06 09:39:01;;;;;;;7.80;5.00;;;;;;;;;;5040083;28;20199;-52
2021/05/06 09:41:29;;;;;;;5.70;4.50;;;;;;;;;;5038041;28;20948;-54
2021/05/06 09:44:07;;;;;;;5.13;3.83;;;;;;;;;;5035139;28;20480;-55
2021/05/06 09:46:36;;;;;;;5.27;4.47;;;;;;;;;;5034944;28;20470;-55
2021/05/06 09:49:04;;;;;;;7.33;4.20;;;;;;;;;;5035075;28;20498;-54
2021/05/06 09:51:33;;;;;;;7.10;3.77;;;;;;;;;;5034469;28;21016;-55
2021/05/06 09:53:59;;;;;;;6.93;4.33;;;;;;;;;;5034792;28;20445;-54
2021/05/06 09:56:27;;;;;;;4.60;4.13;;;;;;;;;;5034986;28;20949;-53
2021/05/06 09:58:54;;;;;;;4.37;3.97;;;;;;;;;;5034777;28;20455;-53
2021/05/06 10:01:23;;;;;;;5.57;4.27;;;;;;;;;;5035385;28;20549;-54
2021/05/06 10:03:50;;;;;;;6.03;4.10;;;;;;;;;;5033699;28;20484;-54
2021/05/06 10:06:18;;;;;;;5.23;4.03;;;;;;;;;;5034894;28;20199;-53
2021/05/06 10:08:45;;;;;;;6.63;4.47;;;;;;;;;;5034777;28;20573;-56
2021/05/06 10:11:13;;;;;;;4.47;4.03;;;;;;;;;;5034256;28;20778;-54
2021/05/06 10:13:40;;;;;;;4.70;4.00;;;;;;;;;;5034689;28;20461;-54
2021/05/06 10:16:08;;;;;;;9.37;4.20;;;;;;;;;;5034490;28;20540;-52
2021/05/06 10:18:38;;;;;;;4.73;3.43;;;;;;;;;;5035386;28;20450;-53
2021/05/06 10:21:05;;;;;;;3.93;3.30;;;;;;;;;;5033749;28;20572;-53
2021/05/06 10:23:32;;;;;;;4.57;3.80;;;;;;;;;;5034169;28;20822;-53
2021/05/06 10:26:00;;;;;;;4.07;3.77;;;;;;;;;;5034209;28;20802;-53
2021/05/06 10:28:27;;;;;;;5.03;3.30;;;;;;;;;;5034085;28;20478;-54
2021/05/06 10:30:54;;;;;;;4.27;3.73;;;;;;;;;;5033605;28;20543;-53
2021/05/06 10:33:23;;;;;;;5.20;3.77;;;;;;;;;;5033087;28;20526;-53
2021/05/06 10:35:51;;;;;;;4.13;3.67;;;;;;;;;;5033786;28;20447;-55
2021/05/06 10:38:18;;;;;;;5.47;3.80;;;;;;;;;;5033644;28;20505;-54
2021/05/06 10:40:46;;;;;;;4.23;3.83;;;;;;;;;;5033319;28;20483;-53
2021/05/06 10:43:19;;;;;;;3.93;3.13;;;;;;;;;;5033892;28;20837;-54
2021/05/06 10:45:54;;;;;;;3.53;3.23;;;;;;;;;;5034131;28;20447;-54
2021/05/06 10:48:21;;;;;;;3.20;2.90;;;;;;;;;;5033313;28;20930;-53
2021/05/06 10:50:50;;;;;;;3.27;2.97;;;;;;;;;;5033256;28;20497;-54
2021/05/06 10:53:27;;;;;;;3.00;2.70;;;;;;;;;;5033739;28;20949;-53
2021/05/06 10:55:55;;;;;;;14.87;7.83;;;;;;;;;;5033243;28;20925;-55
2021/05/06 10:58:39;;;;;;;7.40;4.13;;;;;;;;;;5033440;28;20593;-53
2021/05/06 11:01:20;;;;;;;6.60;3.20;;;;;;;;;;5033849;28;20471;-53
2021/05/06 11:04:11;;;;;;;4.13;2.83;;;;;;;;;;5030999;28;20483;-55
2021/05/06 11:06:42;;;;;;;8.30;3.40;;;;;;;;;;5013844;28;20479;-54
2021/05/06 11:09:43;;;;;;;6.13;2.73;;;;;;;;;;5032954;28;20486;-54
2021/05/06 11:12:21;;;;;;;5.10;3.33;;;;;;;;;;5033102;28;20521;-54
2021/05/06 11:15:06;;;;;;;4.30;3.03;;;;;;;;;;5033090;28;20455;-54
2021/05/06 11:17:41;;;;;;;3.67;2.70;;;;;;;;;;5033191;28;20440;-54
2021/05/06 11:20:38;;;;;;;4.47;2.80;;;;;;;;;;5033400;28;20450;-54
2021/05/06 11:23:05;;;;;;;3.83;2.87;;;;;;;;;;5032926;28;20907;-53
2021/05/06 11:25:51;;;;;;;3.40;2.30;;;;;;;;;;5033013;28;20940;-53
2021/05/06 11:28:40;;;;;;;4.70;2.87;;;;;;;;;;5032597;28;20489;-52
2021/05/06 11:31:07;;;;;;;3.80;2.87;;;;;;;;;;5032887;28;20466;-53
2021/05/06 11:33:34;;;;;;;3.03;2.77;;;;;;;;;;5033225;28;20451;-54
2021/05/06 11:36:03;;;;;;;2.97;2.67;;;;;;;;;;5033045;28;20505;-54
2021/05/06 11:38:43;;;;;;;3.37;2.80;;;;;;;;;;5033344;28;20457;-55
2021/05/06 11:41:12;;;;;;;4.20;3.00;;;;;;;;;;5032198;28;20446;-54
2021/05/06 11:43:41;;;;;;;3.93;2.90;;;;;;;;;;5032720;28;20539;-55
2021/05/06 11:46:08;;;;;;;3.23;2.97;;;;;;;;;;5033064;28;20880;-52
2021/05/06 11:48:36;;;;;;;4.70;2.57;;;;;;;;;;5032477;28;20487;-54
2021/05/06 11:51:03;;;;;;;3.40;2.90;;;;;;;;;;5032296;28;20568;-56
2021/05/06 11:53:29;;;;;;;2.87;2.67;;;;;;;;;;5032782;28;20445;-54
2021/05/06 11:55:56;;;;;;;4.40;3.10;;;;;;;;;;5032828;28;20453;-54
2021/05/06 11:58:24;;;;;;;2.80;2.60;;;;;;;;;;5033090;28;20441;-54
2021/05/06 12:00:54;;;;;;;3.57;2.90;;;;;;;;;;5032989;28;20469;-54
2021/05/06 12:03:21;;;;;;;3.40;2.67;;;;;;;;;;5032689;28;21018;-54
2021/05/06 12:05:56;;;;;;;4.00;2.70;;;;;;;;;;5032879;28;20453;-55
2021/05/06 12:08:25;;;;;;;3.07;2.80;;;;;;;;;;5032433;28;20472;-54
2021/05/06 12:10:52;;;;;;;4.13;3.40;;;;;;;;;;5032382;28;20465;-54
2021/05/06 12:13:24;;;;;;;2.77;2.57;;;;;;;;;;5031884;28;20445;-54
2021/05/06 12:15:51;;;;;;;3.57;2.43;;;;;;;;;;5032495;28;20488;-55
2021/05/06 12:18:20;;;;;;;3.30;3.00;;;;;;;;;;5032348;28;21002;-55
2021/05/06 12:20:54;;;;;;;4.63;2.50;;;;;;;;;;5032372;28;20491;-55
2021/05/06 12:23:21;;;;;;;3.10;2.90;;;;;;;;;;5032466;28;20440;-56
2021/05/06 12:25:48;;;;;;;3.90;3.50;;;;;;;;;;5032426;28;20572;-55
2021/05/06 12:28:15;;;;;;;3.03;2.67;;;;;;;;;;5033625;28;20495;-56
2021/05/06 12:30:42;;;;;;;5.80;3.47;;;;;;;;;;5036332;28;20464;-55
2021/05/06 12:33:09;;;;;;;4.37;2.93;;;;;;;;;;5036858;28;20555;-55
2021/05/06 12:35:50;;;;;;;3.40;3.10;;;;;;;;;;5036171;28;20445;-53
2021/05/06 12:38:17;;;;;;;3.30;3.00;;;;;;;;;;5035927;28;20844;-54
2021/05/06 12:40:44;;;;;;;3.30;3.00;;;;;;;;;;5036362;28;20464;-54
2021/05/06 12:43:24;;;;;;;3.60;3.30;;;;;;;;;;5036589;28;20452;-54
2021/05/06 12:46:07;;;;;;;3.40;2.60;;;;;;;;;;5036493;28;20440;-54
2021/05/06 12:48:38;;;;;;;3.90;3.10;;;;;;;;;;5036795;28;20890;-54
2021/05/06 12:51:06;;;;;;;4.27;2.90;;;;;;;;;;5036582;28;20468;-54
2021/05/06 12:53:33;;;;;;;7.20;3.27;;;;;;;;;;5036383;28;20860;-53
2021/05/06 12:55:59;;;;;;;3.07;2.87;;;;;;;;;;5035652;28;20767;-53
2021/05/06 12:58:27;;;;;;;4.57;2.80;;;;;;;;;;5036824;28;20448;-56
2021/05/06 13:01:11;;;;;;;3.30;2.50;;;;;;;;;;5035798;28;20475;-54
2021/05/06 13:03:40;;;;;;;2.70;2.50;;;;;;;;;;5035681;28;20436;-52
2021/05/06 13:06:09;;;;;;;3.87;2.40;;;;;;;;;;5036805;28;20818;-53
2021/05/06 13:08:36;;;;;;;2.30;2.10;;;;;;;;;;5035795;28;20475;-57
2021/05/06 13:11:04;;;;;;;3.20;2.97;;;;;;;;;;5035652;28;20463;-55
2021/05/06 13:13:38;;;;;;;4.30;2.50;;;;;;;;;;5035534;28;20888;-55
2021/05/06 13:16:05;;;;;;;2.30;2.10;;;;;;;;;;5035189;28;20520;-54
2021/05/06 13:18:32;;;;;;;4.40;2.83;;;;;;;;;;5035353;28;20486;-55
2021/05/06 13:20:58;;;;;;;3.23;2.53;;;;;;;;;;5035453;28;20474;-57
2021/05/06 13:23:29;;;;;;;3.00;2.40;;;;;;;;;;5035393;28;20482;-54
2021/05/06 13:25:57;;;;;;;3.10;2.40;;;;;;;;;;5035699;28;20468;-53
2021/05/06 13:28:38;;;;;;;3.00;2.20;;;;;;;;;;5035593;28;20512;-54
2021/05/06 13:31:06;;;;;;;3.40;2.70;;;;;;;;;;5034946;28;20514;-55
2021/05/06 13:33:33;;;;;;;3.40;2.77;;;;;;;;;;5034985;28;20901;-54
2021/05/06 13:36:04;;;;;;;2.87;2.63;;;;;;;;;;5035184;28;20444;-54
2021/05/06 13:38:51;;;;;;;2.53;2.33;;;;;;;;;;5034819;28;20444;-55
2021/05/06 13:41:18;;;;;;;3.43;2.63;;;;;;;;;;5035505;28;20495;-53
2021/05/06 13:43:44;;;;;;;4.00;2.50;;;;;;;;;;5035474;28;20441;-54
2021/05/06 13:46:12;;;;;;;2.90;2.60;;;;;;;;;;5036019;28;20459;-53
2021/05/06 13:48:39;;;;;;;2.83;2.63;;;;;;;;;;5036443;28;20472;-54
2021/05/06 13:51:06;;;;;;;4.40;2.53;;;;;;;;;;5034981;28;20473;-54
2021/05/06 13:53:33;;;;;;;2.60;2.40;;;;;;;;;;5034995;28;20956;-54
2021/05/06 13:56:00;;;;;;;3.67;2.50;;;;;;;;;;5035573;28;20858;-53
2021/05/06 13:58:27;;;;;;;3.30;3.00;;;;;;;;;;5034729;28;20452;-53
2021/05/06 14:00:54;;;;;;;5.65;2.60;;;;;;;;;;5034582;28;20449;-55
2021/05/06 14:03:21;;;;;;;3.60;2.80;;;;;;;;;;5034849;28;20214;-54
2021/05/06 14:05:47;;;;;;;4.27;3.00;;;;;;;;;;5034901;28;20445;-54
2021/05/06 14:08:15;;;;;;;3.47;2.40;;;;;;;;;;5035331;28;20485;-54
2021/05/06 14:10:42;;;;;;;5.77;2.73;;;;;;;;;;5034729;28;20469;-54
2021/05/06 14:13:09;;;;;;;3.47;3.17;;;;;;;;;;5035005;28;20449;-54
2021/05/06 14:15:36;;;;;;;4.03;3.00;;;;;;;;;;5034515;28;20543;-54
2021/05/06 14:18:03;;;;;;;4.33;2.90;;;;;;;;;;5034329;28;20929;-54
2021/05/06 14:20:30;;;;;;;4.17;2.97;;;;;;;;;;5034018;28;20449;-53
2021/05/06 14:22:57;;;;;;;3.97;3.00;;;;;;;;;;5034472;28;20429;-54
2021/05/06 14:25:23;;;;;;;3.73;2.67;;;;;;;;;;5034650;28;20448;-53
2021/05/06 14:27:50;;;;;;;2.47;2.27;;;;;;;;;;5034329;28;20480;-53
2021/05/06 14:30:18;;;;;;;3.53;2.63;;;;;;;;;;5034149;28;20449;-53
2021/05/06 14:32:45;;;;;;;4.20;2.37;;;;;;;;;;5034131;28;20469;-55
2021/05/06 14:35:12;;;;;;;2.63;2.33;;;;;;;;;;5033959;28;20446;-55
2021/05/06 14:37:39;;;;;;;2.40;2.20;;;;;;;;;;5033994;28;20441;-53
2021/05/06 14:40:06;;;;;;;2.50;2.17;;;;;;;;;;5034390;28;20457;-53
2021/05/06 14:42:33;;;;;;;2.30;1.90;;;;;;;;;;5033113;28;20473;-53
2021/05/06 14:45:00;;;;;;;2.73;2.33;;;;;;;;;;5034222;28;20716;-55
2021/05/06 14:47:28;;;;;;;3.50;2.33;;;;;;;;;;5033146;28;21016;-56
2021/05/06 14:49:56;;;;;;;3.05;2.13;;;;;;;;;;5033516;28;20446;-57
2021/05/06 14:52:23;;;;;;;3.33;2.13;;;;;;;;;;5033507;28;20230;-56
2021/05/06 14:54:50;;;;;;;2.90;2.60;;;;;;;;;;5033897;28;20449;-56
2021/05/06 14:57:17;;;;;;;3.33;2.23;;;;;;;;;;5033927;28;20437;-56
2021/05/06 14:59:43;;;;;;;4.00;2.73;;;;;;;;;;5033572;28;20495;-56
2021/05/06 15:02:10;;;;;;;2.80;2.60;;;;;;;;;;5033533;28;20510;-56
2021/05/06 15:04:38;;;;;;;2.30;1.97;;;;;;;;;;5033196;28;20452;-55
2021/05/06 15:07:05;;;;;;;2.37;2.17;;;;;;;;;;5033364;28;20535;-55
2021/05/06 15:09:32;;;;;;;3.50;2.33;;;;;;;;;;5033195;28;20445;-55
2021/05/06 15:11:59;;;;;;;2.87;2.30;;;;;;;;;;5033516;28;20583;-55
2021/05/06 15:14:26;;;;;;;3.30;2.37;;;;;;;;;;5033699;28;20449;-55
2021/05/06 15:16:53;;;;;;;2.40;2.20;;;;;;;;;;5033913;28;20445;-55
2021/05/06 15:19:20;;;;;;;3.10;2.80;;;;;;;;;;5033125;28;20452;-55
2021/05/06 15:24:15;;;;;;;2.70;2.50;;;;;;;;;;5050375;22;20543;-57
2021/05/06 15:26:42;;;;;;;3.20;2.90;;;;;;;;;;5033190;28;20835;-57
2021/05/06 15:29:08;;;;;;;3.27;2.87;;;;;;;;;;5033221;28;21064;-56
2021/05/06 15:31:37;;;;;;;3.90;3.40;;;;;;;;;;5034713;28;20452;-57
2021/05/06 15:34:04;;;;;;;2.97;2.57;;;;;;;;;;5034006;28;20473;-57
2021/05/06 15:36:31;;;;;;;3.17;2.63;;;;;;;;;;5033271;28;20800;-57
2021/05/06 15:38:58;;;;;;;2.60;2.10;;;;;;;;;;5033651;28;20444;-56
2021/05/06 15:41:26;;;;;;;2.40;1.97;;;;;;;;;;5033486;28;20499;-57
2021/05/06 15:43:53;;;;;;;2.73;2.47;;;;;;;;;;5033605;28;20547;-58
2021/05/06 15:46:20;;;;;;;2.53;2.33;;;;;;;;;;5033925;28;20441;-56
2021/05/06 15:48:46;;;;;;;4.67;2.50;;;;;;;;;;5033414;28;21050;-57
2021/05/06 15:51:13;;;;;;;2.97;2.60;;;;;;;;;;5033426;28;20539;-58
2021/05/06 15:53:42;;;;;;;3.00;2.70;;;;;;;;;;5034131;28;20469;-57
2021/05/06 15:56:09;;;;;;;2.53;2.33;;;;;;;;;;5032444;28;20460;-57
2021/05/06 15:58:37;;;;;;;3.10;2.87;;;;;;;;;;5032955;28;20445;-56
2021/05/06 16:01:05;;;;;;;3.00;2.70;;;;;;;;;;5033305;28;20456;-57
2021/05/06 16:03:34;;;;;;;3.50;2.70;;;;;;;;;;5033323;28;20555;-57
2021/05/06 16:06:01;;;;;;;2.77;2.47;;;;;;;;;;5033307;28;21010;-57
2021/05/06 16:08:27;;;;;;;2.70;2.50;;;;;;;;;;5033507;28;20526;-57
2021/05/06 16:10:54;;;;;;;5.00;2.90;;;;;;;;;;5033832;28;20449;-56
2021/05/06 16:13:23;;;;;;;3.00;2.73;;;;;;;;;;5033405;28;20468;-57
2021/05/06 16:15:51;;;;;;;4.07;3.67;;;;;;;;;;5033593;28;20459;-57
2021/05/06 16:18:20;;;;;;;4.23;2.80;;;;;;;;;;5033583;28;20818;-58
2021/05/06 16:20:47;;;;;;;4.33;3.47;;;;;;;;;;5033650;28;20498;-57
2021/05/06 16:23:14;;;;;;;3.60;2.70;;;;;;;;;;5033187;28;20473;-56
2021/05/06 16:25:41;;;;;;;3.43;3.13;;;;;;;;;;5033435;28;20452;-57
2021/05/06 16:28:09;;;;;;;3.30;2.73;;;;;;;;;;5033069;28;20824;-57
2021/05/06 16:30:36;;;;;;;2.60;2.40;;;;;;;;;;5033556;28;20967;-56
2021/05/06 16:33:06;;;;;;;3.30;2.70;;;;;;;;;;5033339;28;20468;-56
2021/05/06 16:35:36;;;;;;;2.90;2.70;;;;;;;;;;5033307;28;20498;-56
2021/05/06 16:38:05;;;;;;;3.87;3.10;;;;;;;;;;5033151;28;20916;-58
2021/05/06 16:40:36;;;;;;;2.88;2.58;;;;;;;;;;5032204;28;20948;-57
2021/05/06 16:45:53;;;;;;;3.83;3.53;;;;;;;;;;5017116;28;20503;-59
2021/05/06 16:48:21;;;;;;;4.60;3.10;;;;;;;;;;5032489;28;20477;-58
2021/05/06 16:50:48;;;;;;;4.23;3.47;;;;;;;;;;5032810;28;20505;-57
2021/05/06 16:53:14;;;;;;;3.60;3.23;;;;;;;;;;5032484;28;20515;-57
2021/05/06 16:55:42;;;;;;;5.80;4.73;;;;;;;;;;5032499;28;20448;-57
2021/05/06 16:58:10;;;;;;;3.00;2.63;;;;;;;;;;5032568;28;20459;-57
2021/05/06 17:00:37;;;;;;;3.37;2.20;;;;;;;;;;5032701;28;20440;-57
2021/05/06 17:03:05;;;;;;;3.90;3.10;;;;;;;;;;5032370;28;20471;-58
2021/05/06 17:05:33;;;;;;;2.90;2.60;;;;;;;;;;5032747;28;20494;-57
2021/05/06 17:08:00;;;;;;;5.70;2.93;;;;;;;;;;5032667;28;20475;-58
2021/05/06 17:10:27;;;;;;;3.77;3.17;;;;;;;;;;5032608;28;20482;-58
2021/05/06 17:12:53;;;;;;;3.23;2.83;;;;;;;;;;5032770;28;20474;-57
2021/05/06 17:15:21;;;;;;;3.30;3.00;;;;;;;;;;5035713;28;20451;-59
2021/05/06 17:17:47;;;;;;;3.77;3.13;;;;;;;;;;5036465;28;20440;-57
2021/05/06 17:20:15;;;;;;;3.60;3.30;;;;;;;;;;5037483;28;20464;-57
2021/05/06 17:22:43;;;;;;;3.30;3.10;;;;;;;;;;5037186;28;20479;-58
2021/05/06 17:25:11;;;;;;;3.60;3.23;;;;;;;;;;5035977;28;20452;-57